Historique des stations

Station météo de Reugny

Altitude de la station : 96 m







Données météorologiques pour le 21/10/2021
Date
Heure
Températures Humidité Point de rosée Vitesse
du vent
Direction Rafales Windchill Pression Pluviométrie
Cumul
Date
Heure
Températures Humidité Point de rosée Vitesse
du vent
Direction Rafales Windchill Pression Pluviométrie
Cumul
21/10/2021 13:1415.7 °C17 %-9.4 °C26 km/hSO84 km/h12.8 1015 hPa2 mm
21/10/2021 12:5915.7 °C7 %-20.6 °C24 km/hS84 km/h12.8 1015 hPa2 mm
21/10/2021 12:4514.8 °C0 %-130.0 °C18 km/hOSO84 km/h12.8 1015 hPa2 mm
21/10/2021 12:3014.3 °C0 %-130.0 °C16 km/hSO84 km/h12.8 1015 hPa2 mm
21/10/2021 12:1413.8 °C0 %-130.0 °C8 km/hOSO84 km/h13.3 1015 hPa2 mm
21/10/2021 11:5914.2 °C0 %-130.0 °C21 km/hOSO84 km/h11.7 1015 hPa2 mm
21/10/2021 11:4413.8 °C0 %-130.0 °C16 km/hSO84 km/h11.7 1016 hPa2 mm
21/10/2021 11:2913.3 °C0 %-130.0 °C13 km/hSO84 km/h11.7 1016 hPa2 mm
21/10/2021 11:1413.0 °C0 %-130.0 °C16 km/hOSO84 km/h10.6 1016 hPa2 mm
21/10/2021 10:5912.4 °C0 %-130.0 °C16 km/hSO84 km/h10.0 1016 hPa2 mm
21/10/2021 10:4512.3 °C0 %-130.0 °C18 km/hSO84 km/h9.4 1016 hPa2 mm
21/10/2021 10:3011.9 °C0 %-130.0 °C8 km/hSO84 km/h11.1 1016 hPa2 mm
21/10/2021 10:1411.5 °C0 %-130.0 °C11 km/hSO84 km/h10.0 1016 hPa2 mm
21/10/2021 09:5911.1 °C0 %-130.0 °C10 km/hSSO84 km/h10.0 1016 hPa2 mm
21/10/2021 09:4410.6 °C0 %-130.0 °C11 km/hS84 km/h8.9 1015 hPa2 mm
21/10/2021 09:3010.5 °C0 %-130.0 °C10 km/hSSO84 km/h9.4 1015 hPa2 mm
21/10/2021 09:1410.2 °C0 %-130.0 °C11 km/hSO84 km/h8.3 1015 hPa2 mm
21/10/2021 08:599.9 °C0 %-130.0 °C2 km/hSO84 km/h10.0 1015 hPa2 mm
21/10/2021 08:449.9 °C0 %-130.0 °C10 km/hSO84 km/h8.3 1015 hPa2 mm
21/10/2021 08:299.9 °C0 %-130.0 °C3 km/hSO84 km/h9.4 1014 hPa2 mm
21/10/2021 08:1510.0 °C0 %-130.0 °C10 km/hSO84 km/h8.3 1014 hPa2 mm
21/10/2021 07:5910.2 °C0 %-130.0 °C6 km/hOSO84 km/h8.9 1014 hPa2 mm
21/10/2021 07:4410.3 °C0 %-130.0 °C13 km/hSO84 km/h8.3 1014 hPa2 mm
21/10/2021 07:2910.3 °C0 %-130.0 °C10 km/hOSO84 km/h9.4 1014 hPa2 mm
21/10/2021 07:1410.4 °C0 %-130.0 °C11 km/hSO84 km/h8.9 1014 hPa2 mm
21/10/2021 06:5910.7 °C0 %-130.0 °C19 km/hOSO84 km/h7.2 1014 hPa2 mm
21/10/2021 06:4410.7 °C0 %-130.0 °C14 km/hOSO84 km/h8.3 1013 hPa2 mm
21/10/2021 06:2910.9 °C0 %-130.0 °C2 km/hOSO84 km/h11.1 1013 hPa2 mm
21/10/2021 06:1511.0 °C0 %-130.0 °C6 km/hSO84 km/h11.1 1013 hPa2 mm
21/10/2021 06:0011.2 °C0 %-130.0 °C11 km/hOSO84 km/h9.4 1013 hPa2 mm
21/10/2021 05:4411.6 °C0 %-130.0 °C14 km/hOSO84 km/h9.4 1012 hPa2 mm
21/10/2021 05:2911.9 °C0 %-130.0 °C14 km/hOSO84 km/h9.4 1012 hPa2 mm
21/10/2021 05:1412.1 °C0 %-130.0 °C11 km/hO84 km/h11.1 1012 hPa2 mm
21/10/2021 04:5812.5 °C0 %-130.0 °C14 km/hSO84 km/h11.1 1011 hPa2 mm
21/10/2021 04:4412.7 °C0 %-130.0 °C19 km/hSO84 km/h10.0 1011 hPa2 mm
21/10/2021 04:2912.7 °C0 %-130.0 °C10 km/hOSO84 km/h11.7 1011 hPa2 mm
21/10/2021 04:1412.8 °C2 %-36.1 °C13 km/hOSO84 km/h11.1 1010 hPa2 mm
21/10/2021 03:5913.0 °C10 %-18.3 °C27 km/hSO84 km/h8.9 1010 hPa2 mm
21/10/2021 03:4513.1 °C14 %-13.9 °C19 km/hSO84 km/h10.6 1010 hPa2 mm
21/10/2021 03:3012.9 °C10 %-18.3 °C16 km/hO84 km/h10.6 1010 hPa2 mm
21/10/2021 03:1412.9 °C11 %-17.2 °C23 km/hOSO84 km/h9.4 1009 hPa2 mm
21/10/2021 02:5913.2 °C16 %-12.2 °C29 km/hSO84 km/h9.4 1008 hPa2 mm
21/10/2021 02:4413.6 °C14 %-13.9 °C21 km/hOSO84 km/h10.6 1008 hPa2 mm
21/10/2021 02:2913.6 °C8 %-20.6 °C45 km/hOSO84 km/h9.4 1007 hPa2 mm
21/10/2021 02:1413.8 °C6 %-23.3 °C21 km/hO84 km/h11.1 1007 hPa2 mm
21/10/2021 01:5914.0 °C12 %-15.0 °C27 km/hOSO84 km/h10.6 1006 hPa2 mm
21/10/2021 01:4414.1 °C13 %-13.9 °C35 km/hOSO84 km/h9.4 1006 hPa2 mm
21/10/2021 01:2913.8 °C15 %-12.8 °C18 km/hOSO84 km/h11.7 1006 hPa2 mm
21/10/2021 01:1413.7 °C18 %-10.6 °C19 km/hOSO84 km/h11.7 1005 hPa2 mm
21/10/2021 01:0013.7 °C20 %-8.9 °C32 km/hO84 km/h10.0 1005 hPa2 mm
21/10/2021 00:4513.7 °C15 %-12.8 °C13 km/hSO84 km/h12.8 1004 hPa2 mm
21/10/2021 00:3013.7 °C4 %-28.3 °C37 km/hSO84 km/h9.4 1004 hPa2 mm
21/10/2021 00:1513.5 °C0 %-130.0 °C27 km/hSO84 km/h9.4 1005 hPa2 mm


Minima :

Température : 9.9 °C
Humidité : 0 %
Point de rosée : -130.0 °C
Vent moyen : 2 km/h
Windchill : 7.2
Pression atm. : 1004 hPa
Maxima :

Température : 15.7 °C
Humidité : 20 %
Point de rosée : -8.9 °C
Vent moyen : 45 km/h
Windchill : 13.3
Pression atm. : 1016 hPa
Rafales max : 84 km/h
Cumul de pluie sur 24H : 2 mm

Reugny est une commune du département Indre-et-Loire (37).
La station météorologique du réseau de l'association la plus proche de Reugny est celle de Véretz



Icône Facebook Association Météo Centre Icône Twitter Association Météo Centre Icône Chaîne Youtube Association Météo Centre Icône contact Association Météo Centre Icône Insta Association Météo Centre